Time;durP1;ratioP1;P1;durP2;ratioP2;P2;SDS_P1;SDS_P2;PMS_P1;PMS_P2;Temp;Humidity;BMP_temperature;BMP_pressure;BME280_temperature;BME280_humidity;BME280_pressure;Samples;Min_cycle;Max_cycle;Signal;HPM_P1;HPM_P2
2021/12/04 00:02:13;;;;;;;24.00;14.50;;;;;;;3.03;100.00;100408.22;4989868;28;20033;-87
2021/12/04 00:04:55;;;;;;;19.00;10.48;;;;;;;2.91;100.00;100406.53;5001063;28;20054;-88
2021/12/04 00:07:24;;;;;;;26.92;14.73;;;;;;;2.87;100.00;100415.56;5003768;28;20109;-90
2021/12/04 00:10:00;;;;;;;25.27;13.85;;;;;;;2.79;100.00;100412.66;4988960;28;20069;-86
2021/12/04 00:12:31;;;;;;;25.52;14.02;;;;;;;2.87;100.00;100412.94;5004067;28;20042;-89
2021/12/04 00:15:05;;;;;;;25.17;12.20;;;;;;;3.15;100.00;100402.03;5000216;28;20034;-89
2021/12/04 00:17:35;;;;;;;25.42;11.73;;;;;;;2.93;100.00;100391.53;4983809;28;20022;-87
2021/12/04 00:20:04;;;;;;;19.52;10.75;;;;;;;2.81;100.00;100395.94;5000414;28;20053;-88
2021/12/04 00:22:32;;;;;;;22.23;11.65;;;;;;;3.00;100.00;100387.50;5153235;22;20047;-88
2021/12/04 00:24:58;;;;;;;20.67;10.73;;;;;;;2.94;100.00;100390.59;4998830;28;20035;-88
2021/12/04 00:27:24;;;;;;;27.20;11.15;;;;;;;2.94;100.00;100396.66;4981241;28;20026;-87
2021/12/04 00:29:52;;;;;;;17.75;9.73;;;;;;;2.82;100.00;100400.19;4984166;28;20047;-87
2021/12/04 00:32:27;;;;;;;20.38;10.73;;;;;;;2.77;100.00;100396.25;5000710;28;20030;-90
2021/12/04 00:35:08;;;;;;;19.67;10.35;;;;;;;2.72;100.00;100408.88;5003959;28;20034;-88
2021/12/04 00:43:21;;;;;;;19.10;10.40;;;;;;;2.54;100.00;100383.13;4985987;28;20065;-88
2021/12/04 00:51:17;;;;;;;19.63;10.77;;;;;;;2.58;100.00;100381.97;5002112;28;20046;-89
2021/12/04 00:53:47;;;;;;;17.10;9.82;;;;;;;2.69;100.00;100388.13;5000135;28;20034;-86
2021/12/04 00:56:13;;;;;;;21.48;10.73;;;;;;;2.79;100.00;100378.66;5000729;28;20038;-87
2021/12/04 00:58:42;;;;;;;19.83;10.75;;;;;;;2.89;100.00;100374.38;4965741;28;20030;-87
2021/12/04 01:01:07;;;;;;;22.52;10.73;;;;;;;3.02;100.00;100380.34;5001867;28;20042;-89
2021/12/04 01:03:35;;;;;;;21.92;11.02;;;;;;;3.02;100.00;100377.72;5003250;28;20030;-89
2021/12/04 01:06:00;;;;;;;23.23;12.05;;;;;;;2.87;100.00;100378.91;4984940;28;20101;-88
2021/12/04 01:08:32;;;;;;;21.13;12.20;;;;;;;2.71;100.00;100375.78;4984364;28;20070;-87
2021/12/04 01:10:58;;;;;;;21.70;11.23;;;;;;;2.63;100.00;100375.53;5002825;28;20038;-87
2021/12/04 01:13:23;;;;;;;22.70;12.68;;;;;;;2.71;100.00;100386.25;5004263;28;20035;-88
2021/12/04 01:15:49;;;;;;;25.50;12.20;;;;;;;2.78;100.00;100377.00;4984518;28;20077;-87
2021/12/04 01:18:15;;;;;;;21.02;11.68;;;;;;;2.67;100.00;100363.88;5000819;28;20034;-85
2021/12/04 01:20:40;;;;;;;23.35;12.75;;;;;;;2.75;100.00;100362.34;5001629;28;20497;-89
2021/12/04 01:23:07;;;;;;;22.83;12.32;;;;;;;2.71;100.00;100355.69;5003622;28;20066;-87
2021/12/04 01:25:35;;;;;;;23.05;12.30;;;;;;;2.97;100.00;100341.47;4992297;28;20125;-86
2021/12/04 01:28:03;;;;;;;20.83;12.25;;;;;;;3.22;100.00;100329.06;5015416;28;20036;-83
2021/12/04 01:30:29;;;;;;;19.98;11.20;;;;;;;3.36;100.00;100320.97;5019627;28;20054;-83
2021/12/04 01:32:54;;;;;;;23.58;12.73;;;;;;;3.08;100.00;100332.78;4978284;28;20339;-89
2021/12/04 01:35:20;;;;;;;22.42;11.00;;;;;;;2.98;100.00;100334.44;5004323;28;20031;-88
2021/12/04 01:37:47;;;;;;;23.13;11.90;;;;;;;2.99;100.00;100338.72;4985239;28;20125;-88
2021/12/04 01:40:12;;;;;;;23.55;11.20;;;;;;;2.98;100.00;100337.06;4982731;28;20038;-88
2021/12/04 01:42:39;;;;;;;21.98;11.07;;;;;;;3.16;100.00;100337.41;4983020;28;20113;-88
2021/12/04 01:45:09;;;;;;;18.35;10.30;;;;;;;3.27;100.00;100345.25;5001060;28;20045;-88
2021/12/04 01:47:35;;;;;;;19.85;10.73;;;;;;;3.07;100.00;100328.47;5000513;28;20288;-89
2021/12/04 01:50:03;;;;;;;17.02;9.82;;;;;;;3.22;100.00;100323.81;5000955;28;20037;-89
2021/12/04 01:52:29;;;;;;;19.08;10.40;;;;;;;3.22;100.00;100324.66;4983437;28;20397;-88
2021/12/04 01:54:56;;;;;;;17.77;9.30;;;;;;;3.06;100.00;100329.44;4999977;28;20030;-89
2021/12/04 01:57:25;;;;;;;16.30;9.18;;;;;;;3.25;100.00;100324.41;5000101;28;20489;-88
2021/12/04 01:59:51;;;;;;;17.60;9.38;;;;;;;3.33;100.00;100318.59;5000762;28;20044;-89
2021/12/04 02:02:17;;;;;;;17.75;8.48;;;;;;;3.27;100.00;100319.06;5000897;28;20038;-89
2021/12/04 02:04:43;;;;;;;15.43;8.25;;;;;;;3.12;100.00;100321.09;5000889;28;20042;-89
2021/12/04 02:07:10;;;;;;;16.00;8.98;;;;;;;3.14;100.00;100316.59;5000644;28;20057;-89
2021/12/04 02:09:38;;;;;;;14.23;7.47;;;;;;;3.00;100.00;100320.28;4982353;28;20046;-89
2021/12/04 02:12:11;;;;;;;15.90;8.30;;;;;;;2.89;100.00;100308.97;5000225;28;20031;-89
2021/12/04 02:14:39;;;;;;;16.48;8.40;;;;;;;3.21;100.00;100302.06;4966787;28;20501;-86
2021/12/04 02:17:06;;;;;;;15.38;8.30;;;;;;;3.02;100.00;100291.34;4998783;28;20030;-88
2021/12/04 02:19:32;;;;;;;15.60;7.97;;;;;;;3.11;100.00;100295.88;4999313;28;20022;-88
2021/12/04 02:22:04;;;;;;;19.60;8.53;;;;;;;3.07;100.00;100289.22;4982634;28;20066;-86
2021/12/04 02:24:32;;;;;;;15.45;8.63;;;;;;;3.09;100.00;100282.91;4997315;28;20097;-88
2021/12/04 02:26:58;;;;;;;17.20;8.07;;;;;;;3.20;100.00;100283.84;4982285;28;20048;-88
2021/12/04 02:29:23;;;;;;;15.05;8.15;;;;;;;3.08;100.00;100296.13;4998756;28;20026;-86
2021/12/04 02:31:53;;;;;;;18.75;8.95;;;;;;;2.97;100.00;100283.88;4998878;28;20042;-86
2021/12/04 02:34:21;;;;;;;17.50;8.68;;;;;;;3.19;100.00;100261.22;4982013;28;20022;-84
2021/12/04 02:36:46;;;;;;;18.98;7.80;;;;;;;2.99;100.00;100273.25;4999153;28;20069;-86
2021/12/04 02:39:22;;;;;;;13.38;7.78;;;;;;;2.89;100.00;100269.69;4999146;28;20043;-86
2021/12/04 02:41:48;;;;;;;13.23;7.05;;;;;;;2.76;100.00;100275.06;4981259;28;20042;-85
2021/12/04 02:44:14;;;;;;;13.95;7.40;;;;;;;2.94;100.00;100275.41;4981240;28;20030;-86
2021/12/04 02:46:39;;;;;;;13.10;7.28;;;;;;;3.17;100.00;100277.06;4998796;28;20085;-86
2021/12/04 02:49:06;;;;;;;11.98;7.18;;;;;;;3.15;100.00;100268.47;4981349;28;20485;-86
2021/12/04 02:51:32;;;;;;;12.73;6.65;;;;;;;3.12;100.00;100271.34;4981450;28;20449;-88
2021/12/04 02:53:58;;;;;;;15.95;7.60;;;;;;;2.89;100.00;100269.69;4999658;28;20042;-85
2021/12/04 02:56:25;;;;;;;17.23;8.05;;;;;;;2.62;100.00;100261.38;4999434;28;20085;-87
2021/12/04 02:58:55;;;;;;;15.00;8.30;;;;;;;2.29;100.00;100262.16;5000143;28;20031;-88
2021/12/04 03:01:20;;;;;;;15.55;7.63;;;;;;;2.44;100.00;100263.63;4983485;28;20045;-89
2021/12/04 03:03:47;;;;;;;18.38;8.18;;;;;;;2.64;100.00;100254.25;4999677;28;20034;-87
2021/12/04 03:06:16;;;;;;;14.57;7.13;;;;;;;2.70;100.00;100240.69;4982057;28;20398;-86
2021/12/04 03:08:42;;;;;;;14.63;7.05;;;;;;;2.78;100.00;100235.69;4982391;28;20158;-88
2021/12/04 03:11:07;;;;;;;12.13;6.30;;;;;;;2.80;100.00;100226.78;4999852;28;20505;-87
2021/12/04 03:13:33;;;;;;;12.55;6.55;;;;;;;2.79;100.00;100232.13;4965712;28;20034;-89
2021/12/04 03:15:59;;;;;;;11.38;6.05;;;;;;;2.66;100.00;100226.16;4981970;28;20031;-87
2021/12/04 03:18:26;;;;;;;10.75;5.70;;;;;;;2.42;100.00;100231.53;4981473;28;20049;-89
2021/12/04 03:20:54;;;;;;;15.02;5.18;;;;;;;2.35;100.00;100232.94;4999743;28;20034;-87
2021/12/04 03:23:38;;;;;;;11.32;5.40;;;;;;;2.20;100.00;100226.25;5000588;28;20387;-87
2021/12/04 03:26:09;;;;;;;13.38;6.38;;;;;;;2.13;100.00;100238.94;5000194;28;20031;-88
2021/12/04 03:28:37;;;;;;;9.43;5.82;;;;;;;2.13;100.00;100238.94;4981964;28;20049;-90
2021/12/04 03:31:11;;;;;;;11.95;5.15;;;;;;;2.07;100.00;100236.81;4981873;28;20042;-90
2021/12/04 03:41:49;;;;;;;14.02;5.47;;;;;;;2.49;100.00;100230.91;4999617;28;20038;-89
2021/12/04 03:44:15;;;;;;;12.02;6.18;;;;;;;2.68;100.00;100225.13;4983516;28;20100;-89
2021/12/04 03:46:44;;;;;;;11.27;6.38;;;;;;;2.88;100.00;100228.78;4982724;28;20069;-87
2021/12/04 03:49:10;;;;;;;10.32;5.88;;;;;;;2.91;100.00;100216.31;4999799;28;20046;-87
2021/12/04 03:51:38;;;;;;;10.00;5.43;;;;;;;2.98;100.00;100221.88;4999663;28;20034;-87
2021/12/04 03:54:09;;;;;;;10.32;5.18;;;;;;;3.02;100.00;100223.28;4982239;28;20046;-88
2021/12/04 03:56:36;;;;;;;10.27;5.43;;;;;;;2.99;100.00;100220.91;4999059;28;20041;-89
2021/12/04 03:59:05;;;;;;;10.88;5.78;;;;;;;3.10;100.00;100226.97;4981703;28;20042;-88
2021/12/04 04:01:31;;;;;;;11.13;5.05;;;;;;;3.10;100.00;100220.91;4999218;28;20042;-89
2021/12/04 04:03:56;;;;;;;8.98;5.07;;;;;;;3.03;100.00;100211.88;4965188;28;20394;-89
2021/12/04 04:06:22;;;;;;;8.85;5.20;;;;;;;2.80;100.00;100212.84;4999335;28;20405;-87
2021/12/04 04:08:50;;;;;;;9.73;4.40;;;;;;;2.89;100.00;100202.50;4990588;28;20041;-90
2021/12/04 04:11:16;;;;;;;9.90;5.22;;;;;;;2.96;100.00;100197.59;5003018;28;20215;-89
2021/12/04 04:13:45;;;;;;;9.27;4.80;;;;;;;2.85;100.00;100195.03;5002649;28;20052;-88
2021/12/04 04:16:12;;;;;;;8.88;5.15;;;;;;;3.01;100.00;100191.06;5002427;28;20067;-88
2021/12/04 04:18:38;;;;;;;9.02;4.88;;;;;;;3.16;100.00;100199.47;4986675;28;20042;-88
2021/12/04 04:21:04;;;;;;;11.30;4.95;;;;;;;3.13;100.00;100194.47;4994565;28;20026;-86
2021/12/04 04:23:29;;;;;;;8.50;5.18;;;;;;;2.99;100.00;100187.72;5020856;28;20094;-88
2021/12/04 04:25:58;;;;;;;9.85;4.90;;;;;;;2.82;100.00;100184.75;5014392;28;20034;-88
2021/12/04 04:28:24;;;;;;;9.20;5.13;;;;;;;2.89;100.00;100172.88;5002289;28;20366;-87
2021/12/04 04:30:51;;;;;;;8.00;4.57;;;;;;;2.80;100.00;100163.13;4989310;28;20030;-86
2021/12/04 04:33:16;;;;;;;12.75;5.43;;;;;;;2.64;100.00;100170.53;5005116;28;20036;-89
2021/12/04 04:35:45;;;;;;;12.00;5.57;;;;;;;2.47;100.00;100169.22;5005717;28;20077;-86
2021/12/04 05:13:20;;;;;;;;;;;;;;;2.37;100.00;100142.97;4985397;28;20065;-89
2021/12/04 05:20:53;;;;;;;13.88;6.80;;;;;;;2.52;100.00;100139.13;4984670;28;20137;-89
2021/12/04 05:23:19;;;;;;;13.35;6.72;;;;;;;2.49;100.00;100134.16;5001499;28;20050;-85
2021/12/04 05:25:45;;;;;;;12.10;6.30;;;;;;;2.67;100.00;100144.13;5002964;28;20034;-89
2021/12/04 05:28:10;;;;;;;11.43;5.75;;;;;;;2.52;100.00;100141.75;5005776;28;20041;-90
2021/12/04 05:30:36;;;;;;;12.77;6.25;;;;;;;2.63;100.00;100137.47;5001991;28;20034;-88
2021/12/04 05:33:03;;;;;;;11.25;6.10;;;;;;;2.56;100.00;100137.94;4984454;28;20034;-86
2021/12/04 05:35:29;;;;;;;11.65;6.10;;;;;;;2.46;100.00;100130.94;5002860;28;20486;-88
2021/12/04 05:37:54;;;;;;;14.77;6.30;;;;;;;2.38;100.00;100130.72;4983966;28;20067;-87
2021/12/04 05:40:39;;;;;;;10.27;5.85;;;;;;;2.19;100.00;100136.53;5003135;28;20081;-89
2021/12/04 05:43:04;;;;;;;10.80;5.95;;;;;;;2.20;100.00;100130.38;4978745;28;20053;-88
2021/12/04 05:45:33;;;;;;;12.05;5.95;;;;;;;1.99;100.00;100132.84;4998668;28;20014;-85
2021/12/04 05:48:11;;;;;;;10.23;6.05;;;;;;;1.95;100.00;100136.66;4993327;28;20042;-88
2021/12/04 05:55:52;;;;;;;12.52;6.00;;;;;;;2.05;100.00;100132.34;5010431;28;20038;-82
2021/12/04 05:58:30;;;;;;;9.10;5.20;;;;;;;2.13;100.00;100139.63;4991417;28;20045;-82
2021/12/04 06:00:59;;;;;;;13.50;4.93;;;;;;;2.01;100.00;100140.56;4988887;28;20054;-87
2021/12/04 06:03:28;;;;;;;9.15;4.65;;;;;;;2.14;100.00;100145.69;5009538;28;20037;-87
2021/12/04 06:05:54;;;;;;;11.65;5.57;;;;;;;1.94;100.00;100140.22;5011195;28;20038;-84
2021/12/04 06:08:20;;;;;;;12.98;5.40;;;;;;;1.89;100.00;100128.44;5006471;28;20074;-85
2021/12/04 06:10:48;;;;;;;13.45;6.03;;;;;;;1.70;100.00;100130.75;5006654;28;20038;-86
2021/12/04 06:13:16;;;;;;;19.48;5.82;;;;;;;1.43;100.00;100129.28;5001748;28;20208;-86
2021/12/04 06:15:42;;;;;;;11.27;5.70;;;;;;;1.39;100.00;100127.81;5000771;28;20030;-84
2021/12/04 06:18:08;;;;;;;11.65;5.60;;;;;;;1.46;100.00;100120.38;4999285;28;20084;-83
2021/12/04 06:23:20;;;;;;;10.30;5.55;;;;;;;1.46;100.00;100122.97;4980970;28;20401;-87
2021/12/04 06:25:46;;;;;;;8.98;5.32;;;;;;;1.60;100.00;100122.78;4997713;28;20030;-84
2021/12/04 06:28:12;;;;;;;14.68;5.50;;;;;;;1.48;100.00;100121.94;4998404;28;20053;-84
2021/12/04 06:30:41;;;;;;;9.38;4.82;;;;;;;1.50;100.00;100130.47;4999063;28;20030;-85
2021/12/04 06:33:08;;;;;;;11.25;5.25;;;;;;;1.51;100.00;100126.94;4998016;28;20042;-83
2021/12/04 06:35:36;;;;;;;12.45;5.65;;;;;;;1.61;100.00;100126.25;4996615;28;20082;-82
2021/12/04 06:38:02;;;;;;;17.52;6.55;;;;;;;1.70;100.00;100128.16;4997309;28;20117;-83
2021/12/04 06:40:28;;;;;;;11.40;5.72;;;;;;;1.69;100.00;100134.34;4997633;28;20497;-85
2021/12/04 06:42:56;;;;;;;21.80;6.78;;;;;;;1.74;100.00;100126.97;4997539;28;20026;-84
2021/12/04 06:45:22;;;;;;;14.00;5.10;;;;;;;1.74;100.00;100134.81;4996800;28;20036;-85
2021/12/04 06:48:00;;;;;;;8.88;4.82;;;;;;;1.85;100.00;100134.84;4996463;28;20121;-86
2021/12/04 06:50:41;;;;;;;13.63;6.57;;;;;;;1.89;100.00;100115.38;4980896;28;20096;-87
2021/12/04 06:53:23;;;;;;;7.70;3.97;;;;;;;1.90;100.00;100111.81;4998445;28;20108;-87
2021/12/04 06:55:52;;;;;;;10.85;5.53;;;;;;;1.94;100.00;100108.00;4981764;28;20026;-88
2021/12/04 06:58:18;;;;;;;10.88;5.82;;;;;;;1.95;100.00;100107.06;4999122;28;20029;-84
2021/12/04 07:00:45;;;;;;;10.35;5.80;;;;;;;1.94;100.00;100113.25;4981520;28;20042;-85
2021/12/04 07:03:10;;;;;;;12.75;6.05;;;;;;;2.07;100.00;100113.97;4981280;28;20436;-85
2021/12/04 07:05:50;;;;;;;13.43;6.22;;;;;;;2.29;100.00;100107.88;4980983;28;20470;-85
2021/12/04 07:08:16;;;;;;;13.07;6.25;;;;;;;2.31;100.00;100106.00;4999076;28;20053;-86
2021/12/04 07:10:43;;;;;;;11.93;5.85;;;;;;;2.02;100.00;100105.66;4969268;28;20569;-85
2021/12/04 07:13:10;;;;;;;11.40;6.35;;;;;;;1.78;100.00;100108.34;5011491;28;20054;-82
2021/12/04 07:15:46;;;;;;;16.20;6.68;;;;;;;1.79;100.00;100102.16;5085840;22;20050;-83
2021/12/04 07:18:13;;;;;;;18.35;7.45;;;;;;;1.79;100.00;100094.31;5004411;28;20046;-85
2021/12/04 07:20:41;;;;;;;25.40;8.27;;;;;;;1.79;100.00;100089.09;4979349;28;20089;-87
2021/12/04 07:23:07;;;;;;;16.23;7.70;;;;;;;1.81;100.00;100091.63;4980548;28;20034;-84
2021/12/04 07:25:33;;;;;;;17.42;8.57;;;;;;;1.88;100.00;100092.81;4997757;28;20377;-86
2021/12/04 07:27:59;;;;;;;17.90;8.73;;;;;;;1.89;100.00;100087.44;4983055;28;20056;-85
2021/12/04 07:30:25;;;;;;;15.88;8.10;;;;;;;1.90;100.00;100090.91;5001700;28;20037;-82
2021/12/04 07:32:51;;;;;;;17.42;8.32;;;;;;;1.90;100.00;100081.28;5000337;28;20049;-84
2021/12/04 07:35:17;;;;;;;20.70;8.98;;;;;;;2.09;100.00;100081.53;4980830;28;20042;-83
2021/12/04 07:37:43;;;;;;;21.55;8.25;;;;;;;2.12;100.00;100075.25;5000011;28;20031;-86
2021/12/04 07:40:10;;;;;;;20.17;8.93;;;;;;;2.00;100.00;100087.47;4999672;28;20045;-84
2021/12/04 07:42:41;;;;;;;16.48;8.75;;;;;;;1.88;100.00;100082.34;4998681;28;20042;-86
2021/12/04 07:45:10;;;;;;;31.07;9.40;;;;;;;1.89;100.00;100069.16;4982148;28;20066;-85
2021/12/04 07:47:36;;;;;;;17.52;8.43;;;;;;;1.97;100.00;100071.19;4999034;28;20097;-87
2021/12/04 07:50:04;;;;;;;20.65;8.45;;;;;;;1.95;100.00;100083.56;4997242;28;20134;-85
2021/12/04 07:52:30;;;;;;;23.75;10.55;;;;;;;1.87;100.00;100085.91;4980078;28;20030;-83
2021/12/04 07:54:57;;;;;;;20.77;9.57;;;;;;;1.86;100.00;100076.41;4998549;28;20038;-84
2021/12/04 07:57:24;;;;;;;21.08;10.82;;;;;;;1.93;100.00;100074.97;4996699;28;20041;-85
2021/12/04 07:59:50;;;;;;;25.42;10.75;;;;;;;1.89;100.00;100073.59;4980691;28;20122;-86
2021/12/04 08:02:16;;;;;;;19.65;10.38;;;;;;;1.87;100.00;100065.00;4999522;28;20042;-84
2021/12/04 08:04:41;;;;;;;20.55;10.43;;;;;;;1.89;100.00;100065.75;4999470;28;20125;-86
2021/12/04 08:07:07;;;;;;;22.95;11.75;;;;;;;1.92;100.00;100073.34;4997402;28;20118;-84
2021/12/04 08:09:35;;;;;;;25.08;11.85;;;;;;;2.00;100.00;100091.84;5000609;28;20050;-87
2021/12/04 08:12:05;;;;;;;32.00;13.00;;;;;;;2.07;100.00;100082.59;4999330;28;20031;-85
2021/12/04 08:14:30;;;;;;;30.20;12.38;;;;;;;2.07;100.00;100087.81;4998198;28;20038;-85
2021/12/04 08:16:56;;;;;;;27.90;12.27;;;;;;;2.19;100.00;100089.47;4997763;28;20038;-87
2021/12/04 08:19:22;;;;;;;25.33;12.20;;;;;;;2.37;100.00;100095.91;4997429;28;20066;-83
2021/12/04 08:21:47;;;;;;;22.65;11.40;;;;;;;2.34;100.00;100090.91;4997719;28;20053;-88
2021/12/04 08:24:16;;;;;;;21.05;11.38;;;;;;;2.27;100.00;100070.59;4978642;28;20141;-84
2021/12/04 08:26:43;;;;;;;28.27;13.07;;;;;;;2.30;100.00;100075.56;4997779;28;20046;-86
2021/12/04 08:29:09;;;;;;;25.67;12.00;;;;;;;2.44;100.00;100068.31;4997063;28;20046;-84
2021/12/04 08:31:36;;;;;;;31.35;12.57;;;;;;;2.34;100.00;100082.22;4979654;28;20524;-84
2021/12/04 08:34:02;;;;;;;29.38;13.68;;;;;;;2.29;100.00;100087.81;4996159;28;20065;-82
2021/12/04 08:36:28;;;;;;;30.13;12.40;;;;;;;2.27;100.00;100094.94;4975962;28;20045;-83
2021/12/04 08:38:54;;;;;;;27.55;13.10;;;;;;;2.30;100.00;100092.09;4995780;28;20026;-81
2021/12/04 08:41:20;;;;;;;23.88;12.55;;;;;;;2.32;100.00;100082.34;4995837;28;20050;-84
2021/12/04 08:43:47;;;;;;;25.55;13.65;;;;;;;2.23;100.00;100080.44;4994199;28;20116;-85
2021/12/04 08:46:14;;;;;;;31.80;13.68;;;;;;;2.24;100.00;100071.66;4995311;28;20038;-80
2021/12/04 08:48:40;;;;;;;25.63;12.60;;;;;;;2.29;100.00;100063.44;4994878;28;20026;-85
2021/12/04 08:51:06;;;;;;;25.70;12.93;;;;;;;2.44;100.00;100073.53;4994843;28;20090;-85
2021/12/04 08:53:34;;;;;;;33.58;13.48;;;;;;;2.33;100.00;100063.09;4991634;28;20110;-83
2021/12/04 08:56:02;;;;;;;29.55;13.85;;;;;;;2.38;100.00;100065.34;4989560;28;20401;-83
2021/12/04 08:58:37;;;;;;;31.73;13.63;;;;;;;2.45;100.00;100071.75;4981903;28;20034;-84
2021/12/04 09:01:05;;;;;;;30.55;14.35;;;;;;;2.47;100.00;100068.06;5001395;28;20046;-87
2021/12/04 09:03:44;;;;;;;30.90;12.60;;;;;;;2.46;100.00;100068.19;4999635;28;20165;-82
2021/12/04 09:06:11;;;;;;;28.17;14.30;;;;;;;2.46;100.00;100061.16;4960751;28;20043;-81
2021/12/04 09:08:38;;;;;;;33.40;14.43;;;;;;;2.59;100.00;100064.47;5004602;28;20038;-83
2021/12/04 09:11:13;;;;;;;29.73;14.60;;;;;;;2.64;100.00;100058.03;5002764;28;20389;-83
2021/12/04 09:13:41;;;;;;;38.03;15.45;;;;;;;2.49;100.00;100060.91;5002344;28;20038;-81
2021/12/04 09:16:07;;;;;;;38.75;15.80;;;;;;;2.42;100.00;100061.56;4999572;28;20156;-85
2021/12/04 09:18:36;;;;;;;30.13;15.50;;;;;;;2.44;100.00;100057.03;4991413;28;20362;-82
2021/12/04 09:21:04;;;;;;;30.10;15.63;;;;;;;2.43;100.00;100052.72;4988758;28;20038;-80
2021/12/04 09:23:34;;;;;;;34.03;15.95;;;;;;;2.47;100.00;100047.16;4998351;28;20026;-87
2021/12/04 09:26:11;;;;;;;36.03;17.80;;;;;;;2.47;100.00;100044.53;5001185;28;20038;-81
2021/12/04 09:31:27;;;;;;;36.00;16.38;;;;;;;2.60;100.00;100047.00;4962021;28;20113;-85
2021/12/04 09:34:15;;;;;;;32.67;17.70;;;;;;;2.49;100.00;100042.63;4978987;28;20122;-81
2021/12/04 10:04:23;;;;;;;34.10;16.75;;;;;;;2.80;100.00;99982.59;4994835;28;20050;-81
2021/12/04 10:23:44;;;;;;;43.30;18.77;;;;;;;3.29;100.00;99963.63;4997342;28;20060;-82
2021/12/04 10:34:44;;;;;;;37.83;19.48;;;;;;;3.40;100.00;99934.75;4996801;28;20073;-82
2021/12/04 10:37:14;;;;;;;34.88;18.58;;;;;;;3.54;100.00;99937.84;4967399;28;20042;-82
2021/12/04 10:39:43;;;;;;;37.05;18.98;;;;;;;3.58;100.00;99936.59;4967723;28;20126;-82
2021/12/04 10:42:21;;;;;;;37.45;18.15;;;;;;;3.37;100.00;99927.97;4982376;28;20026;-83
2021/12/04 10:44:52;;;;;;;35.00;17.67;;;;;;;3.40;100.00;99909.38;4996961;28;20034;-83
2021/12/04 10:47:25;;;;;;;21.27;12.67;;;;;;;3.34;100.00;99907.28;4982512;28;20433;-80
2021/12/04 10:50:27;;;;;;;35.55;18.20;;;;;;;3.37;100.00;99908.81;4980967;28;20281;-81
2021/12/04 10:55:38;;;;;;;39.58;20.10;;;;;;;3.82;100.00;99904.00;4963286;28;20110;-81
2021/12/04 11:01:24;;;;;;;41.92;18.45;;;;;;;3.71;100.00;99901.50;4999033;28;20042;-85
2021/12/04 11:04:45;;;;;;;34.25;17.75;;;;;;;3.66;100.00;99907.13;5001720;28;20034;-83
2021/12/04 11:22:29;;;;;;;35.03;18.10;;;;;;;3.74;100.00;99859.28;4997741;28;20057;-83
2021/12/04 11:37:21;;;;;;;36.92;18.42;;;;;;;3.99;99.99;99843.03;4886864;29;20055;-83
2021/12/04 11:46:56;;;;;;;33.60;18.48;;;;;;;4.09;100.00;99843.88;4833652;29;20136;-86
2021/12/04 11:55:38;;;;;;;38.60;20.60;;;;;;;3.94;100.00;99848.72;5007438;28;20320;-84
2021/12/04 11:58:45;;;;;;;40.33;20.95;;;;;;;3.98;100.00;99851.88;5002740;28;20489;-84
2021/12/04 12:01:32;;;;;;;38.13;20.13;;;;;;;3.89;100.00;99842.22;5001253;28;20035;-81
2021/12/04 12:04:30;;;;;;;40.33;20.88;;;;;;;3.91;100.00;99840.28;5018208;23;20061;-85
2021/12/04 12:07:31;;;;;;;34.70;19.55;;;;;;;3.96;100.00;99832.84;5026994;28;20048;-88
2021/12/04 12:10:08;;;;;;;39.10;20.27;;;;;;;3.94;100.00;99832.16;5009820;28;20072;-89
2021/12/04 12:12:42;;;;;;;38.05;19.75;;;;;;;3.95;100.00;99826.75;5170344;22;20069;-85
2021/12/04 12:18:37;;;;;;;40.22;19.45;;;;;;;3.98;100.00;99813.38;5160696;22;20058;-87
2021/12/04 12:21:17;;;;;;;43.17;19.63;;;;;;;4.18;100.00;99801.09;4919658;29;20047;-87
2021/12/04 12:38:34;;;;;;;36.87;20.60;;;;;;;4.32;100.00;99755.25;3066985;22;20054;-85
2021/12/04 12:41:21;;;;;;;41.92;20.98;;;;;;;4.51;100.00;99761.28;5009869;28;20301;-83
2021/12/04 12:47:07;;;;;;;39.83;20.92;;;;;;;4.62;98.85;99737.50;5299917;22;20058;-87
2021/12/04 12:49:49;;;;;;;38.85;21.00;;;;;;;4.66;99.05;99727.53;4995081;28;20605;-90
2021/12/04 12:52:46;;;;;;;45.40;21.92;;;;;;;4.56;99.95;99727.59;4995061;28;20034;-88
2021/12/04 12:55:38;;;;;;;42.95;22.60;;;;;;;4.57;99.89;99729.22;4982483;28;20051;-88
2021/12/04 13:20:08;;;;;;;49.53;23.67;;;;;;;4.86;100.00;99709.91;970638;26;20333;-89
2021/12/04 13:26:30;;;;;;;45.53;24.42;;;;;;;4.66;100.00;99709.19;4944088;29;20186;-87
2021/12/04 13:29:00;;;;;;;47.40;24.58;;;;;;;4.55;100.00;99702.31;4943404;29;20044;-87
2021/12/04 13:31:27;;;;;;;49.70;25.65;;;;;;;4.44;100.00;99689.34;4943001;29;20032;-86
2021/12/04 13:33:54;;;;;;;52.75;25.92;;;;;;;4.48;100.00;99685.47;4949718;29;20044;-87
2021/12/04 13:41:51;;;;;;;38.27;19.10;;;;;;;4.52;100.00;99665.88;1304869;26;20583;-88
2021/12/04 13:44:28;;;;;;;47.08;25.17;;;;;;;4.65;100.00;99676.03;5007422;28;20030;-89
2021/12/04 13:47:12;;;;;;;51.65;27.63;;;;;;;4.64;100.00;99679.59;5137776;22;20050;-89
2021/12/04 13:53:07;;;;;;;50.87;26.97;;;;;;;4.64;100.00;99656.00;4978424;28;20083;-86
2021/12/04 13:55:44;;;;;;;46.03;23.40;;;;;;;4.73;100.00;99663.00;4955312;23;20087;-86
2021/12/04 13:58:16;;;;;;;52.42;25.30;;;;;;;4.83;100.00;99660.34;4962090;23;20135;-87
2021/12/04 14:06:20;;;;;;;34.43;19.30;;;;;;;5.08;100.00;99657.00;5018644;23;20050;-86
2021/12/04 14:11:43;;;;;;;52.47;25.52;;;;;;;5.14;100.00;99657.22;3193035;26;20085;-86
2021/12/04 14:14:36;;;;;;;49.50;27.00;;;;;;;4.92;100.00;99664.69;5000968;23;20050;-84
2021/12/04 14:25:13;;;;;;;59.80;27.50;;;;;;;5.08;100.00;99638.59;4932400;29;20569;-87
2021/12/04 14:28:06;;;;;;;56.47;29.10;;;;;;;4.95;100.00;99648.66;4921772;29;20040;-84
2021/12/04 14:41:23;;;;;;;45.27;21.87;;;;;;;5.04;100.00;99621.50;3132401;26;20050;-89
2021/12/04 14:45:05;;;;;;;55.03;29.00;;;;;;;5.06;100.00;99622.19;4972201;28;20031;-84
2021/12/04 14:47:38;;;;;;;55.08;28.80;;;;;;;5.12;100.00;99613.72;4881864;29;20049;-87
2021/12/04 14:50:43;;;;;;;63.97;30.70;;;;;;;5.03;100.00;99609.38;4882265;29;20053;-84
2021/12/04 14:56:44;;;;;;;63.80;31.58;;;;;;;4.88;100.00;99600.31;5159261;22;20047;-86
2021/12/04 14:59:16;;;;;;;64.80;30.30;;;;;;;4.93;100.00;99603.34;5006852;22;20030;-83
2021/12/04 15:01:42;;;;;;;63.13;31.50;;;;;;;4.87;100.00;99593.44;5253749;22;20057;-85
2021/12/04 15:04:22;;;;;;;61.20;31.52;;;;;;;4.67;100.00;99588.28;4992598;28;20457;-86
2021/12/04 15:06:54;;;;;;;65.38;33.20;;;;;;;4.59;100.00;99601.34;4991361;28;20034;-84
2021/12/04 15:09:27;;;;;;;62.67;31.45;;;;;;;4.52;100.00;99604.69;5008848;22;20023;-84
2021/12/04 15:11:54;;;;;;;60.50;30.23;;;;;;;4.54;100.00;99614.06;4999025;28;20035;-84
2021/12/04 15:14:34;;;;;;;58.95;29.77;;;;;;;4.48;100.00;99604.16;4980659;28;20068;-83
2021/12/04 15:17:20;;;;;;;59.70;28.83;;;;;;;4.54;100.00;99614.06;4980313;28;20040;-83
2021/12/04 15:19:54;;;;;;;48.50;26.92;;;;;;;4.51;100.00;99606.47;4985357;28;20038;-82
2021/12/04 15:22:38;;;;;;;52.78;27.98;;;;;;;4.42;100.00;99599.50;4995503;28;20046;-82
2021/12/04 15:25:55;;;;;;;52.20;26.98;;;;;;;4.31;100.00;99591.81;4969365;28;20044;-82
2021/12/04 15:28:31;;;;;;;51.95;27.35;;;;;;;4.27;100.00;99587.84;4995186;28;20421;-82
2021/12/04 15:31:07;;;;;;;48.97;27.95;;;;;;;4.21;100.00;99588.41;5005243;28;20046;-84
2021/12/04 15:33:51;;;;;;;57.35;28.95;;;;;;;4.18;100.00;99591.31;4995148;28;20031;-83
2021/12/04 15:36:39;;;;;;;52.88;27.48;;;;;;;4.18;100.00;99590.50;4989163;28;20402;-86
2021/12/04 15:39:14;;;;;;;57.05;28.73;;;;;;;4.16;100.00;99590.63;5000562;28;20038;-83
2021/12/04 15:42:11;;;;;;;59.72;28.98;;;;;;;4.13;100.00;99588.31;5002292;28;20061;-84
2021/12/04 15:47:48;;;;;;;59.47;28.02;;;;;;;4.13;100.00;99594.38;5002887;28;20034;-85
2021/12/04 15:53:11;;;;;;;62.20;29.40;;;;;;;4.21;100.00;99598.88;5001347;28;20101;-87
2021/12/04 15:59:50;;;;;;;53.60;26.50;;;;;;;4.35;100.00;99582.69;4998824;28;20058;-86
2021/12/04 16:02:22;;;;;;;55.08;27.85;;;;;;;4.38;100.00;99592.88;4994133;28;20482;-84